Time;durP1;ratioP1;P1;durP2;ratioP2;P2;SDS_P1;SDS_P2;PMS_P1;PMS_P2;Temp;Humidity;BMP_temperature;BMP_pressure;BME280_temperature;BME280_humidity;BME280_pressure;Samples;Min_cycle;Max_cycle;Signal;HPM_P1;HPM_P2
2021/05/20 00:01:23;;;;;;;4.53;3.00;;;;;;;16.16;72.56;100588.58;1752264;81;21888;-72
2021/05/20 00:03:52;;;;;;;4.53;3.15;;;;;;;16.14;72.73;100584.45;1752118;81;21037;-75
2021/05/20 00:06:21;;;;;;;3.25;2.90;;;;;;;16.13;72.68;100582.78;1751960;81;21696;-72
2021/05/20 00:08:48;;;;;;;5.17;3.45;;;;;;;16.13;72.42;100577.55;1752180;81;20898;-73
2021/05/20 00:11:15;;;;;;;4.22;3.55;;;;;;;16.12;72.31;100575.89;1755114;81;21064;-73
2021/05/20 00:13:42;;;;;;;4.90;3.72;;;;;;;16.10;72.22;100576.52;1759187;81;21632;-73
2021/05/20 00:16:09;;;;;;;5.87;3.25;;;;;;;16.07;72.18;100572.87;1758900;81;21024;-72
2021/05/20 00:18:36;;;;;;;3.67;3.30;;;;;;;16.06;72.14;100566.80;1759229;81;21038;-76
2021/05/20 00:21:03;;;;;;;5.40;3.20;;;;;;;16.07;71.99;100569.78;1759113;81;20968;-72
2021/05/20 00:23:31;;;;;;;6.37;3.58;;;;;;;16.08;71.86;100580.57;1759267;81;20929;-72
2021/05/20 00:25:58;;;;;;;3.80;3.50;;;;;;;16.07;71.86;100575.02;1759079;81;21076;-73
2021/05/20 00:28:25;;;;;;;3.72;3.37;;;;;;;16.07;71.81;100572.40;1759060;81;21032;-73
2021/05/20 00:30:53;;;;;;;4.95;3.08;;;;;;;16.07;71.67;100569.78;1759010;81;21049;-73
2021/05/20 00:33:21;;;;;;;4.50;3.17;;;;;;;16.06;71.60;100573.34;1759023;81;21028;-73
2021/05/20 00:35:48;;;;;;;3.42;2.95;;;;;;;16.06;71.71;100574.66;1759151;81;20905;-72
2021/05/20 00:38:15;;;;;;;3.62;2.70;;;;;;;16.08;71.64;100578.46;1759148;81;21073;-74
2021/05/20 00:40:43;;;;;;;4.22;3.30;;;;;;;16.07;71.55;100572.40;1759008;81;20984;-72
2021/05/20 00:43:09;;;;;;;4.35;3.70;;;;;;;16.07;71.38;100572.40;1759112;81;21567;-73
2021/05/20 00:45:36;;;;;;;6.60;3.10;;;;;;;16.06;71.48;100571.21;1759224;81;21597;-75
2021/05/20 00:48:04;;;;;;;3.30;3.00;;;;;;;16.04;71.50;100565.30;1759002;81;20981;-73
2021/05/20 00:50:31;;;;;;;4.92;3.10;;;;;;;16.03;71.42;100559.23;1759170;81;21083;-74
2021/05/20 00:52:58;;;;;;;4.25;3.27;;;;;;;16.01;71.35;100544.64;1759143;81;20976;-73
2021/05/20 00:55:31;;;;;;;3.70;3.40;;;;;;;15.98;71.44;100539.69;1759291;81;21557;-76
2021/05/20 00:57:55;;;;;;;4.35;3.95;;;;;;;15.95;71.47;100530.80;1758637;81;21444;-73
2021/05/20 01:00:24;;;;;;;4.97;3.87;;;;;;;15.91;71.64;100525.48;1761291;81;21005;-74
2021/05/20 01:02:52;;;;;;;6.80;3.45;;;;;;;15.87;72.09;100521.84;1763233;81;21461;-74
2021/05/20 01:05:21;;;;;;;5.17;3.50;;;;;;;15.85;72.87;100519.86;1762926;81;20988;-74
2021/05/20 01:07:49;;;;;;;6.42;3.60;;;;;;;15.83;74.06;100531.41;1763432;81;20976;-71
2021/05/20 01:10:16;;;;;;;4.78;3.52;;;;;;;15.76;74.74;100527.70;1761712;81;20956;-72
2021/05/20 01:12:43;;;;;;;5.35;3.47;;;;;;;15.68;75.82;100533.61;1758004;81;20980;-71
2021/05/20 01:15:25;;;;;;;5.55;3.50;;;;;;;15.58;76.94;100536.70;1757317;81;21071;-70
2021/05/20 01:17:55;;;;;;;9.43;3.77;;;;;;;15.46;77.93;100557.37;1757186;81;21000;-70
2021/05/20 01:20:30;;;;;;;5.47;3.77;;;;;;;15.33;79.52;100557.62;1757375;81;21000;-70
2021/05/20 01:23:16;;;;;;;4.12;3.40;;;;;;;15.22;81.02;100551.69;1727496;83;20998;-70
2021/05/20 01:25:47;;;;;;;7.87;4.05;;;;;;;15.13;82.21;100531.55;1759238;81;21019;-69
2021/05/20 01:28:17;;;;;;;4.62;3.47;;;;;;;15.04;83.25;100507.52;1759232;81;21080;-74
2021/05/20 01:30:45;;;;;;;4.40;4.00;;;;;;;14.98;84.35;100494.98;1758728;81;20986;-75
2021/05/20 01:33:12;;;;;;;8.55;4.20;;;;;;;14.88;85.34;100480.59;1759677;81;20984;-77
2021/05/20 01:35:42;;;;;;;6.87;4.17;;;;;;;14.83;86.26;100468.42;1727660;83;21699;-77
2021/05/20 01:41:09;;;;;;;4.50;4.10;;;;;;;14.67;87.76;100458.47;1759608;81;21036;-74
2021/05/20 01:43:39;;;;;;;5.17;4.00;;;;;;;14.59;88.42;100467.42;1759515;81;21098;-77
2021/05/20 01:46:06;;;;;;;3.67;3.37;;;;;;;14.54;89.01;100463.56;1759407;81;20976;-73
2021/05/20 01:48:38;;;;;;;4.95;4.50;;;;;;;14.51;89.31;100469.88;1727817;83;21560;-74
2021/05/20 01:51:20;;;;;;;5.72;4.65;;;;;;;14.51;89.67;100478.19;1759507;81;21602;-74
2021/05/20 01:53:56;;;;;;;4.78;4.30;;;;;;;14.52;89.77;100496.83;1759395;81;21110;-71
2021/05/20 01:56:24;;;;;;;7.08;3.77;;;;;;;14.52;89.73;100504.66;1759393;81;21005;-74
2021/05/20 01:58:53;;;;;;;5.95;4.50;;;;;;;14.50;89.51;100502.16;1759404;81;20985;-72
2021/05/20 02:01:20;;;;;;;6.78;4.25;;;;;;;14.53;89.85;100503.67;1727782;83;20903;-72
2021/05/20 02:03:49;;;;;;;4.87;4.28;;;;;;;14.57;89.57;100490.24;1759792;81;20908;-72
2021/05/20 02:06:15;;;;;;;6.95;4.83;;;;;;;14.62;89.40;100494.58;1727791;83;21109;-71
2021/05/20 02:08:43;;;;;;;5.15;4.53;;;;;;;14.67;89.47;100486.37;1759781;81;21043;-72
2021/05/20 02:11:11;;;;;;;4.90;4.40;;;;;;;14.71;88.98;100487.26;1727139;82;21620;-71
2021/05/20 02:13:38;;;;;;;5.60;4.67;;;;;;;14.74;88.91;100489.61;1756384;81;21499;-71
2021/05/20 02:16:07;;;;;;;5.83;5.05;;;;;;;14.80;88.64;100490.38;1724590;83;21063;-72
2021/05/20 02:18:36;;;;;;;5.35;4.75;;;;;;;14.82;88.40;100496.80;1756527;81;21143;-73
2021/05/20 02:21:03;;;;;;;5.78;5.17;;;;;;;14.84;88.17;100500.92;1724806;83;21014;-71
2021/05/20 02:23:30;;;;;;;5.62;4.33;;;;;;;14.85;87.85;100484.77;1756405;81;21023;-72
2021/05/20 02:25:57;;;;;;;7.65;5.22;;;;;;;14.87;87.59;100481.54;1724426;83;21011;-68
2021/05/20 02:28:24;;;;;;;5.22;4.72;;;;;;;14.86;87.04;100469.93;1756101;81;21016;-72
2021/05/20 02:30:51;;;;;;;6.75;5.25;;;;;;;14.82;86.98;100475.42;1724692;83;21086;-70
2021/05/20 02:33:18;;;;;;;5.87;5.20;;;;;;;14.82;86.98;100486.34;1756295;81;21000;-70
2021/05/20 02:35:45;;;;;;;6.15;5.15;;;;;;;14.77;86.99;100499.79;1724727;83;20947;-74
2021/05/20 02:38:12;;;;;;;5.83;5.20;;;;;;;14.71;86.67;100510.77;1756685;81;20973;-79
2021/05/20 02:40:39;;;;;;;8.03;5.40;;;;;;;14.54;86.27;100536.20;1724479;83;21905;-72
2021/05/20 02:43:06;;;;;;;6.45;5.45;;;;;;;14.36;86.84;100553.89;1756008;81;21597;-75
2021/05/20 02:45:33;;;;;;;6.37;5.70;;;;;;;14.17;87.75;100572.33;1724775;83;21022;-77
2021/05/20 02:48:00;;;;;;;8.25;5.83;;;;;;;13.98;89.26;100591.75;1756381;81;20941;-71
2021/05/20 02:50:27;;;;;;;7.08;6.00;;;;;;;13.66;91.66;100602.63;1724657;83;20915;-71
2021/05/20 02:52:55;;;;;;;8.40;6.50;;;;;;;13.30;94.97;100625.09;1756215;81;21012;-75
2021/05/20 02:55:23;;;;;;;7.65;6.67;;;;;;;12.97;98.68;100641.04;1724687;83;21824;-71
2021/05/20 02:57:54;;;;;;;10.10;7.17;;;;;;;12.72;100.00;100652.48;1756281;81;21009;-81
2021/05/20 03:00:20;;;;;;;8.53;6.80;;;;;;;12.56;100.00;100664.98;1725225;83;20923;-72
2021/05/20 03:02:48;;;;;;;9.50;7.80;;;;;;;12.47;100.00;100683.05;1760051;81;20921;-76
2021/05/20 03:05:17;;;;;;;10.10;7.47;;;;;;;12.48;100.00;100673.81;1727671;83;21035;-70
2021/05/20 03:07:44;;;;;;;7.85;7.05;;;;;;;12.52;100.00;100674.42;1757967;81;21515;-74
2021/05/20 03:10:12;;;;;;;9.98;8.20;;;;;;;12.48;100.00;100669.08;1726324;83;20904;-73
2021/05/20 03:12:39;;;;;;;8.43;7.47;;;;;;;12.47;100.00;100660.93;1758865;81;21688;-72
2021/05/20 03:15:08;;;;;;;9.95;7.53;;;;;;;12.43;100.00;100650.37;1727879;83;21053;-73
2021/05/20 03:17:35;;;;;;;9.50;6.87;;;;;;;12.39;100.00;100653.67;1759403;81;20901;-72
2021/05/20 03:20:04;;;;;;;8.13;7.33;;;;;;;12.39;100.00;100656.74;1727810;83;21020;-72
2021/05/20 03:22:33;;;;;;;8.90;7.00;;;;;;;12.42;100.00;100644.80;1759609;81;20961;-72
2021/05/20 03:25:02;;;;;;;8.70;7.62;;;;;;;12.47;100.00;100633.14;1759744;81;20970;-73
2021/05/20 03:27:29;;;;;;;10.10;7.28;;;;;;;12.55;100.00;100622.13;1759689;81;20962;-71
2021/05/20 03:29:56;;;;;;;10.50;7.67;;;;;;;12.61;100.00;100626.41;1759313;81;21020;-71
2021/05/20 03:32:23;;;;;;;9.00;7.58;;;;;;;12.63;100.00;100627.14;1727643;83;21119;-70
2021/05/20 03:34:50;;;;;;;9.53;7.55;;;;;;;12.65;100.00;100620.51;1759462;81;20925;-72
2021/05/20 03:37:17;;;;;;;9.00;7.37;;;;;;;12.67;100.00;100616.00;1727440;83;20990;-73
2021/05/20 03:39:44;;;;;;;11.48;7.97;;;;;;;12.69;100.00;100611.53;1759403;81;21103;-71
2021/05/20 03:42:13;;;;;;;11.60;8.10;;;;;;;12.69;100.00;100598.05;1727832;83;20907;-73
2021/05/20 03:44:40;;;;;;;9.30;7.92;;;;;;;12.72;100.00;100596.51;1759585;81;21089;-72
2021/05/20 03:47:07;;;;;;;9.70;8.35;;;;;;;12.76;100.00;100587.16;1727691;83;20971;-72
2021/05/20 03:49:35;;;;;;;8.75;7.85;;;;;;;12.76;100.00;100572.37;1759604;81;20977;-70
2021/05/20 03:52:02;;;;;;;12.85;8.13;;;;;;;12.76;100.00;100560.65;1727556;83;21942;-70
2021/05/20 03:54:28;;;;;;;11.48;8.73;;;;;;;12.79;100.00;100556.51;1759732;81;20897;-71
2021/05/20 03:56:56;;;;;;;11.10;8.18;;;;;;;12.79;100.00;100550.00;1727441;83;21125;-75
2021/05/20 03:59:23;;;;;;;9.95;8.85;;;;;;;12.78;100.00;100551.41;1759481;81;21075;-69
2021/05/20 04:01:50;;;;;;;9.90;8.20;;;;;;;12.73;100.00;100552.58;1727529;83;21323;-71
2021/05/20 04:04:17;;;;;;;8.98;7.62;;;;;;;12.72;100.00;100550.94;1759499;81;21032;-72
2021/05/20 04:06:44;;;;;;;9.48;8.33;;;;;;;12.73;100.00;100551.77;1727778;83;20967;-73
2021/05/20 04:09:11;;;;;;;9.20;7.47;;;;;;;12.74;100.00;100549.03;1759570;81;21079;-72
2021/05/20 04:11:38;;;;;;;9.80;8.80;;;;;;;12.76;100.00;100554.61;1725142;82;21055;-72
2021/05/20 04:14:07;;;;;;;10.72;8.65;;;;;;;12.77;100.00;100541.45;1711325;83;20952;-74
2021/05/20 04:16:34;;;;;;;11.28;9.15;;;;;;;12.79;100.00;100530.47;1711288;83;21028;-72
2021/05/20 04:19:03;;;;;;;11.28;8.30;;;;;;;12.81;100.00;100518.14;1711332;83;21020;-76
2021/05/20 04:21:32;;;;;;;9.65;7.67;;;;;;;12.84;100.00;100527.02;1711389;83;21112;-71
2021/05/20 04:24:00;;;;;;;8.60;7.70;;;;;;;12.87;100.00;100536.37;1710926;83;21609;-78
2021/05/20 04:26:27;;;;;;;10.90;7.47;;;;;;;12.88;100.00;100539.34;1711310;83;21060;-72
2021/05/20 04:28:54;;;;;;;10.80;7.47;;;;;;;12.89;100.00;100556.63;1711271;83;21020;-75
2021/05/20 04:31:22;;;;;;;7.12;6.42;;;;;;;12.90;100.00;100564.30;1711129;83;21071;-76
2021/05/20 04:33:49;;;;;;;7.67;6.62;;;;;;;12.89;100.00;100562.64;1711113;83;21091;-83
2021/05/20 04:36:16;;;;;;;10.72;6.85;;;;;;;12.90;100.00;100564.30;1711238;83;20996;-74
2021/05/20 04:38:43;;;;;;;8.73;6.75;;;;;;;12.90;100.00;100556.49;1711187;83;21104;-70
2021/05/20 04:41:10;;;;;;;8.30;6.80;;;;;;;12.88;100.00;100553.19;1711247;83;21513;-72
2021/05/20 04:43:37;;;;;;;7.75;6.87;;;;;;;12.85;100.00;100541.71;1711191;83;20972;-73
2021/05/20 04:46:04;;;;;;;8.80;6.37;;;;;;;12.88;100.00;100530.22;1710915;83;21074;-75
2021/05/20 04:48:31;;;;;;;6.72;6.03;;;;;;;12.87;100.00;100520.27;1711124;83;20944;-73
2021/05/20 04:51:01;;;;;;;8.00;6.42;;;;;;;12.88;100.00;100519.80;1711055;83;21547;-71
2021/05/20 04:53:28;;;;;;;7.55;6.62;;;;;;;12.86;100.00;100519.11;1711425;83;20972;-75
2021/05/20 04:55:56;;;;;;;7.62;6.33;;;;;;;12.84;100.00;100524.42;1711081;83;21005;-75
2021/05/20 04:58:22;;;;;;;9.83;6.25;;;;;;;12.84;100.00;100538.74;1711163;83;21089;-73
2021/05/20 05:00:49;;;;;;;7.45;5.95;;;;;;;12.85;100.00;100556.50;1711204;83;21137;-76
2021/05/20 05:03:16;;;;;;;8.13;5.70;;;;;;;12.85;100.00;100559.11;1711283;83;20977;-74
2021/05/20 05:05:43;;;;;;;8.08;5.95;;;;;;;12.85;100.00;100547.39;1710932;83;21040;-71
2021/05/20 05:08:12;;;;;;;7.12;6.28;;;;;;;12.81;100.00;100523.82;1711467;83;20984;-72
2021/05/20 05:10:39;;;;;;;8.20;6.45;;;;;;;12.77;100.00;100508.91;1711411;83;21087;-71
2021/05/20 05:13:06;;;;;;;9.30;6.25;;;;;;;12.76;100.00;100508.58;1735972;81;20965;-72
2021/05/20 05:15:35;;;;;;;6.78;6.00;;;;;;;12.76;100.00;100512.95;1756206;81;21057;-71
2021/05/20 05:18:02;;;;;;;6.90;5.87;;;;;;;12.76;100.00;100513.78;1756340;81;20950;-72
2021/05/20 05:20:29;;;;;;;8.10;5.40;;;;;;;12.77;100.00;100515.88;1756303;81;20882;-72
2021/05/20 05:22:56;;;;;;;6.00;5.40;;;;;;;12.76;100.00;100501.23;1724568;83;21158;-71
2021/05/20 05:25:24;;;;;;;6.08;5.42;;;;;;;12.77;100.00;100498.96;1755966;81;21577;-72
2021/05/20 05:27:51;;;;;;;7.65;5.08;;;;;;;12.79;100.00;100495.78;1724276;83;21003;-71
2021/05/20 05:30:20;;;;;;;5.60;4.87;;;;;;;12.80;100.00;100498.72;1756217;81;21503;-74
2021/05/20 05:32:47;;;;;;;5.58;5.08;;;;;;;12.83;100.00;100502.42;1755957;81;21532;-74
2021/05/20 05:35:14;;;;;;;5.47;4.72;;;;;;;12.81;100.00;100501.22;1756143;81;21715;-77
2021/05/20 05:37:41;;;;;;;5.78;5.20;;;;;;;12.79;100.00;100500.99;1755997;81;21478;-70
2021/05/20 05:40:09;;;;;;;7.45;5.50;;;;;;;12.77;100.00;100501.56;1724388;83;21011;-70
2021/05/20 05:42:36;;;;;;;7.03;5.28;;;;;;;12.78;100.00;100488.91;1756129;81;21028;-72
2021/05/20 05:45:04;;;;;;;6.22;4.70;;;;;;;12.78;100.00;100486.30;1724758;83;21026;-83
2021/05/20 05:47:31;;;;;;;5.90;5.08;;;;;;;12.77;100.00;100485.47;1756097;81;21682;-74
2021/05/20 05:50:08;;;;;;;5.78;5.08;;;;;;;12.80;100.00;100487.84;1724339;83;21038;-71
2021/05/20 05:52:31;;;;;;;6.75;6.08;;;;;;;12.84;100.00;100492.34;1755292;81;21491;-74
2021/05/20 05:55:00;;;;;;;7.05;5.78;;;;;;;12.86;100.00;100493.06;1724278;83;20994;-75
2021/05/20 05:57:27;;;;;;;8.40;6.28;;;;;;;12.86;100.00;100487.35;1756181;81;20964;-76
2021/05/20 05:59:54;;;;;;;6.83;6.10;;;;;;;12.86;100.00;100479.54;1723360;83;21524;-73
2021/05/20 06:02:21;;;;;;;8.23;6.50;;;;;;;12.86;100.00;100471.73;1739047;81;20889;-77
2021/05/20 06:04:51;;;;;;;7.53;6.42;;;;;;;12.87;100.00;100476.47;1722392;82;20897;-75
2021/05/20 06:07:19;;;;;;;6.92;6.20;;;;;;;12.86;100.00;100476.94;1722633;83;21016;-71
2021/05/20 06:09:47;;;;;;;7.58;6.33;;;;;;;12.88;100.00;100473.76;1722560;82;20928;-72
2021/05/20 06:12:15;;;;;;;8.08;6.08;;;;;;;12.93;100.00;100469.47;1723161;82;21076;-77
2021/05/20 06:14:43;;;;;;;7.65;6.67;;;;;;;12.94;100.00;100460.25;1730876;82;20869;-76
2021/05/20 06:17:13;;;;;;;10.03;6.58;;;;;;;12.99;100.00;100455.49;1730895;82;20920;-74
2021/05/20 06:19:40;;;;;;;6.95;6.28;;;;;;;13.05;100.00;100451.59;1731024;82;21050;-74
2021/05/20 06:22:07;;;;;;;12.20;6.60;;;;;;;13.09;100.00;100449.11;1731058;82;21106;-74
2021/05/20 06:24:35;;;;;;;7.12;6.42;;;;;;;13.10;100.00;100441.19;1731208;82;21886;-73
2021/05/20 06:27:04;;;;;;;9.08;7.25;;;;;;;13.12;100.00;100426.25;1731136;82;20931;-73
2021/05/20 06:29:31;;;;;;;8.23;7.05;;;;;;;13.17;100.00;100407.19;1731129;82;20931;-76
2021/05/20 06:32:03;;;;;;;10.10;7.67;;;;;;;13.22;100.00;100405.49;1740453;81;21557;-75
2021/05/20 06:34:32;;;;;;;10.75;6.78;;;;;;;13.21;100.00;100411.64;1757244;80;21649;-75
2021/05/20 06:37:04;;;;;;;10.80;6.80;;;;;;;13.22;100.00;100419.82;1732655;82;21051;-70
2021/05/20 06:39:32;;;;;;;8.60;7.58;;;;;;;13.24;100.00;100430.47;1764419;80;21019;-75
2021/05/20 06:42:00;;;;;;;8.20;7.25;;;;;;;13.23;100.00;100439.26;1764292;81;21093;-75
2021/05/20 06:44:31;;;;;;;8.23;7.00;;;;;;;13.22;100.00;100439.36;1764795;81;21070;-73
2021/05/20 06:46:59;;;;;;;8.70;6.37;;;;;;;13.22;100.00;100441.50;1764985;81;20952;-77
2021/05/20 06:49:29;;;;;;;7.85;6.33;;;;;;;13.25;100.00;100439.11;1732779;82;21122;-75
2021/05/20 06:51:58;;;;;;;7.87;7.08;;;;;;;13.31;100.00;100444.30;1759381;81;21028;-71
2021/05/20 06:54:26;;;;;;;8.65;7.85;;;;;;;13.36;100.00;100432.58;1757615;81;21693;-76
2021/05/20 06:56:57;;;;;;;11.20;8.05;;;;;;;13.37;100.00;100439.92;1757700;81;21148;-75
2021/05/20 07:02:09;;;;;;;9.35;8.15;;;;;;;13.34;100.00;100456.61;1758477;81;21088;-70
2021/05/20 07:04:36;;;;;;;7.95;6.78;;;;;;;13.36;100.00;100460.41;1759432;81;20956;-74
2021/05/20 07:07:03;;;;;;;7.80;6.80;;;;;;;13.36;100.00;100461.72;1759257;81;21032;-70
2021/05/20 07:09:33;;;;;;;7.20;6.47;;;;;;;13.39;100.00;100460.16;1759575;81;21095;-75
2021/05/20 07:12:02;;;;;;;8.88;7.53;;;;;;;13.43;100.00;100472.01;1750901;81;21651;-72
2021/05/20 07:14:33;;;;;;;8.23;6.40;;;;;;;13.43;100.00;100468.93;1727763;81;21104;-71
2021/05/20 07:17:02;;;;;;;9.58;6.92;;;;;;;13.42;100.00;100471.64;1753329;81;21054;-71
2021/05/20 07:19:32;;;;;;;8.53;7.08;;;;;;;13.40;100.00;100483.48;1754085;81;20977;-71
2021/05/20 07:22:00;;;;;;;7.65;6.45;;;;;;;13.43;100.00;100509.80;1753822;81;21128;-71
2021/05/20 07:24:30;;;;;;;10.93;7.35;;;;;;;13.47;100.00;100522.45;1754334;81;21291;-69
2021/05/20 07:26:59;;;;;;;8.80;7.13;;;;;;;13.53;100.00;100522.46;1753812;81;21208;-73
2021/05/20 07:29:28;;;;;;;8.90;7.37;;;;;;;13.55;100.00;100518.77;1753836;81;21107;-73
2021/05/20 07:31:56;;;;;;;8.00;6.47;;;;;;;13.59;100.00;100520.16;1754290;81;21013;-73
2021/05/20 07:34:24;;;;;;;8.10;6.72;;;;;;;13.62;100.00;100525.63;1752737;80;21052;-71
2021/05/20 07:36:54;;;;;;;9.90;7.60;;;;;;;13.61;100.00;100528.70;1740509;80;21116;-74
2021/05/20 07:39:21;;;;;;;8.05;7.22;;;;;;;13.59;100.00;100527.98;1721294;82;21120;-75
2021/05/20 07:41:48;;;;;;;8.03;6.62;;;;;;;13.60;100.00;100531.42;1721529;83;21633;-77
2021/05/20 07:44:17;;;;;;;10.10;6.42;;;;;;;13.61;100.00;100540.91;1721435;82;21239;-74
2021/05/20 07:46:44;;;;;;;11.75;7.30;;;;;;;13.63;100.00;100537.69;1721285;82;21107;-74
2021/05/20 07:49:12;;;;;;;7.75;6.95;;;;;;;13.63;100.00;100538.99;1731547;80;20985;-74
2021/05/20 07:51:39;;;;;;;7.75;6.72;;;;;;;13.60;100.00;100541.38;1764572;80;21740;-75
2021/05/20 07:54:07;;;;;;;11.75;8.30;;;;;;;13.57;100.00;100543.40;1717939;82;21055;-77
2021/05/20 07:56:36;;;;;;;11.80;8.88;;;;;;;13.57;100.00;100539.48;1733757;82;21685;-73
2021/05/20 07:59:06;;;;;;;13.00;9.85;;;;;;;13.56;100.00;100530.83;1755455;81;21076;-74
2021/05/20 08:01:35;;;;;;;12.13;9.93;;;;;;;13.58;100.00;100528.95;1757044;81;21168;-73
2021/05/20 08:04:12;;;;;;;10.68;8.83;;;;;;;13.57;100.00;100527.28;1756662;81;21109;-77
2021/05/20 08:07:52;;;;;;;8.05;7.25;;;;;;;13.56;100.00;100525.62;1756675;81;21148;-73
2021/05/20 08:09:34;;;;;;;7.95;7.08;;;;;;;13.55;100.00;100527.06;1737002;81;21321;-74
2021/05/20 08:11:57;;;;;;;9.53;7.12;;;;;;;13.54;100.00;100534.05;1755332;81;21096;-74
2021/05/20 08:14:25;;;;;;;8.43;6.90;;;;;;;13.54;100.00;100541.87;1755843;81;21111;-73
2021/05/20 08:16:52;;;;;;;9.73;7.80;;;;;;;13.51;100.00;100543.42;1757467;81;21036;-71
2021/05/20 08:19:19;;;;;;;20.75;18.37;;;;;;;13.51;100.00;100538.68;1756149;81;21016;-73
2021/05/20 08:21:46;;;;;;;19.10;13.68;;;;;;;13.49;100.00;100545.34;1726510;82;21083;-71
2021/05/20 08:24:15;;;;;;;10.60;7.90;;;;;;;13.49;100.00;100541.89;1756143;80;21027;-71
2021/05/20 08:26:43;;;;;;;8.48;6.60;;;;;;;13.48;100.00;100537.15;1756139;80;21083;-70
2021/05/20 08:29:10;;;;;;;10.08;6.50;;;;;;;13.46;100.00;100540.84;1756666;81;21519;-72
2021/05/20 08:31:41;;;;;;;8.25;6.72;;;;;;;13.46;100.00;100540.84;1750510;80;20988;-73
2021/05/20 08:34:10;;;;;;;8.20;6.92;;;;;;;13.49;100.00;100545.80;1744062;82;21066;-73
2021/05/20 08:36:37;;;;;;;11.73;6.47;;;;;;;13.52;100.00;100536.44;1718073;83;21656;-74
2021/05/20 08:39:06;;;;;;;6.62;6.03;;;;;;;13.54;100.00;100516.27;1718269;83;21045;-73
2021/05/20 08:41:35;;;;;;;12.23;6.67;;;;;;;13.55;100.00;100505.73;1718324;83;21096;-71
2021/05/20 08:44:12;;;;;;;8.08;6.67;;;;;;;13.55;100.00;100494.00;1713032;83;21013;-74
2021/05/20 08:46:41;;;;;;;6.80;6.08;;;;;;;13.54;100.00;100496.25;1721632;82;21163;-72
2021/05/20 08:49:17;;;;;;;8.30;6.12;;;;;;;13.56;100.00;100498.24;1727455;83;21128;-72
2021/05/20 08:51:44;;;;;;;7.37;6.60;;;;;;;13.60;100.00;100505.34;1779614;80;21165;-75
2021/05/20 08:54:13;;;;;;;11.00;6.20;;;;;;;13.63;100.00;100503.79;1757692;80;21733;-69
2021/05/20 08:56:45;;;;;;;8.08;6.55;;;;;;;13.65;100.00;100490.17;1732310;81;21126;-71
2021/05/20 08:59:13;;;;;;;11.38;6.53;;;;;;;13.62;100.00;100478.69;1720353;81;20996;-71
2021/05/20 09:01:43;;;;;;;11.00;7.75;;;;;;;13.57;100.00;100490.78;1721814;83;46161;-71
2021/05/20 09:04:10;;;;;;;9.18;7.87;;;;;;;13.57;100.00;100484.73;1722376;83;21097;-71
2021/05/20 09:07:00;;;;;;;10.38;8.28;;;;;;;13.52;100.00;100460.83;1721954;82;22064;-72
2021/05/20 09:09:35;;;;;;;8.73;7.87;;;;;;;13.48;100.00;100456.81;1722164;83;21141;-70
2021/05/20 09:12:00;;;;;;;9.75;7.22;;;;;;;13.39;100.00;100467.98;1722123;83;21212;-72
2021/05/20 09:14:34;;;;;;;7.75;6.85;;;;;;;13.31;100.00;100492.05;1722467;83;21102;-73
2021/05/20 09:17:18;;;;;;;9.15;6.53;;;;;;;13.31;100.00;100492.05;1719022;83;21062;-71
2021/05/20 09:20:00;;;;;;;8.45;6.92;;;;;;;13.29;100.00;100502.25;1722758;83;21620;-71
2021/05/20 09:22:29;;;;;;;8.23;6.85;;;;;;;13.26;100.00;100500.72;1723024;83;21031;-72
2021/05/20 09:24:59;;;;;;;7.97;6.72;;;;;;;13.25;100.00;100502.49;1722719;83;21803;-71
2021/05/20 09:27:42;;;;;;;8.05;6.78;;;;;;;13.23;100.00;100490.55;1720532;82;21824;-74
2021/05/20 09:30:16;;;;;;;7.45;6.45;;;;;;;13.23;100.00;100478.81;1722218;83;21841;-74
2021/05/20 09:32:52;;;;;;;8.08;6.90;;;;;;;13.23;100.00;100474.44;1721720;83;21195;-74
2021/05/20 09:35:22;;;;;;;8.33;7.30;;;;;;;13.22;100.00;100479.75;1722555;83;21197;-73
2021/05/20 09:38:02;;;;;;;7.97;6.37;;;;;;;13.20;100.00;100489.48;1721902;83;21122;-76
2021/05/20 09:40:39;;;;;;;8.03;6.72;;;;;;;13.20;100.00;100496.00;1750730;81;21117;-72
2021/05/20 09:43:20;;;;;;;9.13;7.22;;;;;;;13.21;100.00;100497.16;1754306;81;21101;-70
2021/05/20 09:45:50;;;;;;;9.98;7.28;;;;;;;13.24;100.00;100489.09;1726144;81;21148;-77
2021/05/20 09:48:25;;;;;;;11.85;8.10;;;;;;;13.24;100.00;100490.40;1732304;81;21687;-73
2021/05/20 09:50:57;;;;;;;11.68;7.40;;;;;;;13.25;100.00;100500.36;1755030;81;20955;-71
2021/05/20 09:53:28;;;;;;;8.23;7.28;;;;;;;13.25;100.00;100493.38;1726317;81;21671;-72
2021/05/20 09:56:01;;;;;;;10.28;8.38;;;;;;;13.28;100.00;100492.77;1755980;81;20975;-73
2021/05/20 09:58:34;;;;;;;12.78;9.10;;;;;;;13.25;100.00;100487.33;1756394;81;21745;-73
2021/05/20 10:01:01;;;;;;;11.73;9.48;;;;;;;13.24;100.00;100488.30;1755385;81;21010;-73
2021/05/20 10:03:34;;;;;;;11.35;9.70;;;;;;;13.25;100.00;100479.04;1756179;81;20982;-71
2021/05/20 10:06:04;;;;;;;14.15;8.88;;;;;;;13.27;100.00;100471.11;1755852;81;21584;-68
2021/05/20 10:08:32;;;;;;;12.33;8.15;;;;;;;13.27;100.00;100451.57;1756323;81;21045;-69
2021/05/20 10:11:04;;;;;;;11.08;7.42;;;;;;;13.29;100.00;100465.76;1756233;81;21093;-72
2021/05/20 10:13:32;;;;;;;12.85;6.87;;;;;;;13.26;100.00;100457.72;1756110;81;21145;-73
2021/05/20 10:15:59;;;;;;;7.67;6.30;;;;;;;13.22;100.00;100450.63;1733935;81;21172;-70
2021/05/20 10:18:28;;;;;;;8.63;7.25;;;;;;;13.19;100.00;100417.47;1747963;81;21044;-70
2021/05/20 10:21:00;;;;;;;8.25;6.62;;;;;;;13.16;100.00;100394.27;1758984;81;20943;-73
2021/05/20 10:23:27;;;;;;;9.80;7.00;;;;;;;13.15;100.00;100381.70;1725258;83;21230;-68
2021/05/20 10:25:57;;;;;;;8.75;6.87;;;;;;;13.19;100.00;100379.69;1746254;82;21109;-72
2021/05/20 10:28:27;;;;;;;9.83;6.58;;;;;;;13.18;100.00;100378.02;1731477;81;21032;-69
2021/05/20 10:30:57;;;;;;;8.70;6.37;;;;;;;13.20;100.00;100356.59;1758860;81;21034;-76
2021/05/20 10:33:28;;;;;;;10.45;7.33;;;;;;;13.27;100.00;100350.41;1758895;81;21081;-71
2021/05/20 10:35:57;;;;;;;7.50;6.20;;;;;;;13.31;100.00;100346.58;1759278;81;21192;-71
2021/05/20 10:38:35;;;;;;;8.68;6.80;;;;;;;13.27;100.00;100309.55;1759038;81;21330;-74
2021/05/20 10:41:18;;;;;;;8.65;6.97;;;;;;;13.27;100.00;100268.33;1759227;81;20907;-70
2021/05/20 10:43:50;;;;;;;8.65;7.10;;;;;;;13.23;100.00;100226.06;1758984;81;20974;-76
2021/05/20 10:46:19;;;;;;;7.95;6.90;;;;;;;13.23;100.00;100212.56;1758856;81;21727;-68
2021/05/20 10:48:51;;;;;;;8.60;6.65;;;;;;;13.25;100.00;100244.98;1759420;81;21536;-79
2021/05/20 10:51:21;;;;;;;;;;;;;;;13.30;100.00;100251.13;1761692;81;20879;-82
2021/05/20 10:53:54;;;;;;;7.70;6.28;;;;;;;13.36;100.00;100249.31;1758973;81;20555;-77
2021/05/20 10:56:27;;;;;;;7.08;6.20;;;;;;;13.41;100.00;100251.87;1758653;81;20918;-78
2021/05/20 10:58:58;;;;;;;7.92;7.12;;;;;;;13.50;100.00;100267.20;1759105;81;21071;-73
2021/05/20 11:01:34;;;;;;;6.47;5.87;;;;;;;13.59;100.00;100280.80;1758402;81;21078;-72
2021/05/20 11:04:05;;;;;;;8.08;6.58;;;;;;;13.63;100.00;100279.55;1758287;81;20974;-73
2021/05/20 11:06:43;;;;;;;7.40;6.05;;;;;;;13.70;100.00;100292.42;1758989;81;21018;-74
2021/05/20 11:09:11;;;;;;;6.95;6.00;;;;;;;13.88;100.00;100289.55;1758687;81;21022;-73
2021/05/20 11:11:44;;;;;;;6.00;5.45;;;;;;;14.28;100.00;100294.78;1758756;81;21233;-74
2021/05/20 11:14:19;;;;;;;5.72;5.22;;;;;;;14.56;100.00;100298.43;1759082;81;21758;-76
2021/05/20 11:16:49;;;;;;;6.45;5.37;;;;;;;14.77;100.00;100296.04;1759683;81;21033;-72
2021/05/20 11:19:25;;;;;;;5.62;4.90;;;;;;;14.92;100.00;100300.39;1759333;81;20955;-74
2021/05/20 11:22:05;;;;;;;6.75;5.60;;;;;;;14.94;100.00;100299.77;1759710;81;20930;-74
2021/05/20 11:24:39;;;;;;;5.33;4.83;;;;;;;14.97;100.00;100297.35;1759604;81;21105;-74
2021/05/20 11:27:15;;;;;;;5.80;5.00;;;;;;;14.92;100.00;100295.64;1759489;81;20919;-72
2021/05/20 11:29:44;;;;;;;5.28;4.22;;;;;;;14.82;100.00;100299.09;1759560;81;20942;-72
2021/05/20 11:36:12;;;;;;;5.12;4.30;;;;;;;14.75;100.00;100303.20;1760028;81;20915;-74